createdAt,value
2018-04-04T00:00:30.329Z,27.60
2018-04-04T00:03:00.141Z,27.70
2018-04-04T00:05:30.458Z,27.70
2018-04-04T00:08:00.269Z,27.80
2018-04-04T00:10:30.021Z,27.90
2018-04-04T00:12:59.911Z,28.00
2018-04-04T00:15:30.175Z,28.10
2018-04-04T00:18:01.127Z,28.20
2018-04-04T00:20:31.675Z,28.20
2018-04-04T00:23:02.192Z,28.30
2018-04-04T00:25:32.730Z,28.40
2018-04-04T00:28:03.330Z,28.50
2018-04-04T00:30:33.077Z,28.50
2018-04-04T00:33:02.849Z,28.60
2018-04-04T00:35:32.625Z,28.60
2018-04-04T00:38:02.430Z,28.60
2018-04-04T00:40:33.209Z,28.80
2018-04-04T00:43:02.990Z,28.80
2018-04-04T00:45:33.041Z,28.90
2018-04-04T00:48:03.666Z,29.00
2018-04-04T00:50:33.482Z,29.00
2018-04-04T00:53:03.800Z,29.10
2018-04-04T00:55:33.623Z,29.20
2018-04-04T00:58:04.455Z,29.20
2018-04-04T01:00:34.292Z,29.20
2018-04-04T01:03:04.896Z,29.20
2018-04-04T01:05:34.677Z,29.10
2018-04-04T01:08:04.480Z,29.20
2018-04-04T01:10:34.609Z,29.20
2018-04-04T01:13:05.609Z,29.30
2018-04-04T01:15:36.163Z,29.30
2018-04-04T01:18:05.976Z,29.30
2018-04-04T01:20:35.747Z,29.40
2018-04-04T01:23:05.783Z,29.40
2018-04-04T01:25:36.031Z,29.60
2018-04-04T01:28:06.127Z,29.70
2018-04-04T01:30:36.436Z,29.70
2018-04-04T01:33:07.471Z,29.80
2018-04-04T01:35:38.075Z,29.80
2018-04-04T01:38:07.893Z,29.80
2018-04-04T01:40:37.657Z,29.80
2018-04-04T01:43:08.083Z,29.80
2018-04-04T01:45:38.049Z,29.80
2018-04-04T01:48:08.853Z,29.70
2018-04-04T01:50:38.590Z,29.70
2018-04-04T01:53:08.448Z,29.70
2018-04-04T01:55:39.196Z,29.80
2018-04-04T01:58:08.984Z,29.80
2018-04-04T02:00:39.707Z,30.00
2018-04-04T02:03:10.280Z,30.00
2018-04-04T02:05:40.390Z,30.00
2018-04-04T02:08:10.150Z,30.10
2018-04-04T02:10:40.151Z,30.20
2018-04-04T02:13:10.906Z,30.30
2018-04-04T02:15:40.730Z,30.30
2018-04-04T02:18:10.552Z,30.40
2018-04-04T02:20:41.547Z,30.60
2018-04-04T02:23:12.082Z,30.70
2018-04-04T02:25:41.912Z,30.70
2018-04-04T02:28:17.239Z,30.80
2018-04-04T02:30:47.016Z,30.70
2018-04-04T02:33:16.841Z,30.70
2018-04-04T02:35:46.580Z,30.80
2018-04-04T02:38:16.386Z,30.90
2018-04-04T02:40:46.150Z,31.00
2018-04-04T02:43:15.910Z,31.20
2018-04-04T02:45:46.097Z,31.30
2018-04-04T02:48:16.018Z,31.40
2018-04-04T02:50:45.865Z,31.70
2018-04-04T02:53:15.661Z,31.80
2018-04-04T02:55:45.472Z,31.90
2018-04-04T02:58:15.324Z,32.10
2018-04-04T03:00:45.993Z,32.50
2018-04-04T03:03:15.882Z,32.40
2018-04-04T03:05:45.892Z,32.60
2018-04-04T03:08:15.775Z,32.70
2018-04-04T03:10:46.515Z,32.80
2018-04-04T03:13:17.698Z,32.70
2018-04-04T03:15:48.193Z,32.50
2018-04-04T03:18:19.973Z,32.60
2018-04-04T03:20:50.426Z,32.60
2018-04-04T03:23:21.799Z,32.70
2018-04-04T03:25:53.672Z,32.90
2018-04-04T03:28:25.260Z,32.90
2018-04-04T03:30:55.085Z,32.90
2018-04-04T03:33:24.872Z,32.90
2018-04-04T03:35:55.536Z,32.50
2018-04-04T03:38:25.386Z,32.50
2018-04-04T03:40:56.080Z,32.40
2018-04-04T03:43:25.958Z,32.50
2018-04-04T03:45:56.545Z,32.60
2018-04-04T03:48:26.303Z,32.90
2018-04-04T03:50:58.297Z,32.40
2018-04-04T03:53:28.148Z,32.40
2018-04-04T03:55:57.932Z,32.40
2018-04-04T03:58:27.732Z,32.50
2018-04-04T04:00:57.582Z,32.70
2018-04-04T04:03:27.334Z,32.80
2018-04-04T04:05:57.886Z,33.10
2018-04-04T04:08:27.709Z,33.10
2018-04-04T04:10:57.851Z,33.20
2018-04-04T04:13:27.644Z,33.30
2018-04-04T04:15:57.792Z,33.30
2018-04-04T04:18:27.901Z,33.30
2018-04-04T04:20:57.738Z,33.20
2018-04-04T04:23:27.502Z,33.10
2018-04-04T04:25:57.263Z,33.10
2018-04-04T04:28:27.864Z,32.60
2018-04-04T04:30:57.719Z,32.60
2018-04-04T04:33:28.282Z,32.00
2018-04-04T04:35:58.175Z,32.00
2018-04-04T04:38:27.973Z,31.70
2018-04-04T04:40:58.538Z,31.40
2018-04-04T04:43:28.275Z,31.40
2018-04-04T04:45:58.384Z,31.30
2018-04-04T04:48:28.149Z,31.30
2018-04-04T04:50:59.887Z,31.20
2018-04-04T04:53:31.188Z,31.20
2018-04-04T04:56:01.076Z,31.10
2018-04-04T04:58:30.890Z,31.00
2018-04-04T05:01:00.683Z,31.00
2018-04-04T05:03:31.273Z,30.90
2018-04-04T05:06:01.361Z,30.90
2018-04-04T05:08:31.216Z,30.90
2018-04-04T05:11:01.063Z,31.00
2018-04-04T05:13:31.627Z,31.20
2018-04-04T05:16:01.334Z,31.20
2018-04-04T05:18:31.156Z,31.30
2018-04-04T05:21:00.977Z,31.40
2018-04-04T05:23:30.825Z,31.50
2018-04-04T05:26:01.352Z,31.90
2018-04-04T05:28:32.298Z,31.90
2018-04-04T05:31:02.864Z,32.20
2018-04-04T05:33:32.694Z,32.30
2018-04-04T05:36:02.477Z,32.50
2018-04-04T05:38:32.304Z,32.60
2018-04-04T05:41:02.078Z,32.70
2018-04-04T05:43:32.650Z,32.80
2018-04-04T05:46:02.479Z,32.80
2018-04-04T05:48:32.370Z,32.80
2018-04-04T05:51:02.174Z,32.70
2018-04-04T05:53:32.045Z,32.70
2018-04-04T05:56:01.835Z,32.70
2018-04-04T05:58:31.656Z,32.80
2018-04-04T06:01:01.446Z,32.80
2018-04-04T06:03:31.306Z,32.60
2018-04-04T06:06:01.905Z,32.50
2018-04-04T06:08:31.668Z,32.50
2018-04-04T06:11:01.446Z,32.50
2018-04-04T06:13:31.253Z,32.40
2018-04-04T06:16:01.000Z,32.30
2018-04-04T06:18:30.811Z,32.30
2018-04-04T06:21:01.040Z,32.20
2018-04-04T06:23:31.149Z,32.20
2018-04-04T06:26:01.308Z,32.10
2018-04-04T06:28:31.448Z,32.10
2018-04-04T06:31:01.714Z,32.10
2018-04-04T06:33:33.015Z,32.10
2018-04-04T06:36:02.774Z,32.10
2018-04-04T06:38:32.540Z,32.10
2018-04-04T06:41:02.651Z,32.10
2018-04-04T06:43:32.923Z,32.10
2018-04-04T06:46:03.128Z,32.20
2018-04-04T06:48:33.241Z,32.20
2018-04-04T06:51:03.475Z,32.20
2018-04-04T06:53:33.590Z,32.30
2018-04-04T06:56:03.854Z,32.40
2018-04-04T06:58:34.795Z,32.40
2018-04-04T07:01:04.644Z,32.40
2018-04-04T07:03:34.418Z,32.40
2018-04-04T07:06:04.609Z,32.50
2018-04-04T07:08:34.776Z,32.60
2018-04-04T07:11:05.008Z,32.70
2018-04-04T07:13:36.110Z,32.70
2018-04-04T07:16:05.920Z,32.70
2018-04-04T07:18:35.748Z,32.80
2018-04-04T07:21:06.473Z,32.80
2018-04-04T07:23:36.283Z,32.80
2018-04-04T07:26:06.933Z,32.80
2018-04-04T07:28:36.749Z,32.80
2018-04-04T07:31:07.224Z,32.90
2018-04-04T07:33:37.718Z,33.00
2018-04-04T07:36:07.519Z,33.00
2018-04-04T07:38:37.700Z,33.00
2018-04-04T07:41:07.498Z,33.00
2018-04-04T07:43:37.524Z,33.00
2018-04-04T07:46:07.696Z,33.00
2018-04-04T07:48:39.309Z,32.90
2018-04-04T07:51:09.133Z,32.90
2018-04-04T07:53:39.010Z,32.90
2018-04-04T07:56:09.641Z,32.80
2018-04-04T07:58:40.260Z,32.70
2018-04-04T08:01:10.089Z,32.70
2018-04-04T08:03:40.697Z,32.50
2018-04-04T08:06:10.536Z,32.50
2018-04-04T08:08:41.078Z,32.50
2018-04-04T08:11:11.489Z,32.50
2018-04-04T08:13:42.002Z,32.40
2018-04-04T08:16:12.772Z,32.40
2018-04-04T08:18:42.595Z,32.40
2018-04-04T08:21:12.360Z,32.40
2018-04-04T08:23:42.174Z,32.30
2018-04-04T08:26:11.923Z,32.20
2018-04-04T08:28:41.768Z,32.10
2018-04-04T08:31:11.716Z,32.10
2018-04-04T08:33:43.196Z,32.00
2018-04-04T08:36:13.023Z,32.00
2018-04-04T08:38:42.819Z,31.90
2018-04-04T08:41:12.645Z,31.90
2018-04-04T08:43:42.407Z,31.90
2018-04-04T08:46:12.567Z,31.90
2018-04-04T08:48:42.747Z,32.00
2018-04-04T08:51:12.920Z,32.00
2018-04-04T08:53:43.188Z,32.00
2018-04-04T08:56:13.412Z,32.00
2018-04-04T08:58:43.689Z,32.00
2018-04-04T09:01:14.000Z,32.00
2018-04-04T09:03:44.745Z,31.90
2018-04-04T09:06:14.912Z,31.90
2018-04-04T09:08:44.717Z,31.90
2018-04-04T09:11:14.618Z,31.90
2018-04-04T09:13:44.821Z,31.90
2018-04-04T09:16:16.125Z,31.80
2018-04-04T09:18:46.718Z,31.70
2018-04-04T09:21:16.575Z,31.70
2018-04-04T09:23:47.172Z,31.60
2018-04-04T09:26:16.963Z,31.60
2018-04-04T09:28:46.734Z,31.60
2018-04-04T09:31:16.530Z,31.60
2018-04-04T09:33:46.520Z,31.70
2018-04-04T09:36:16.905Z,31.70
2018-04-04T09:38:46.930Z,31.70
2018-04-04T09:41:17.277Z,31.80
2018-04-04T09:43:52.810Z,31.80
2018-04-04T09:46:22.600Z,31.90
2018-04-04T09:48:52.428Z,31.80
2018-04-04T09:51:22.570Z,31.80
2018-04-04T09:53:52.357Z,31.80
2018-04-04T09:56:22.192Z,31.70
2018-04-04T09:58:52.334Z,31.70
2018-04-04T10:01:28.788Z,31.60
2018-04-04T10:03:59.106Z,31.60
2018-04-04T10:06:29.403Z,31.60
2018-04-04T10:09:00.493Z,31.50
2018-04-04T10:11:31.174Z,31.50
2018-04-04T10:14:01.090Z,31.50
2018-04-04T10:16:31.918Z,31.40
2018-04-04T10:19:01.705Z,31.40
2018-04-04T10:21:32.228Z,31.40
2018-04-04T10:24:02.843Z,31.30
2018-04-04T10:26:32.599Z,31.30
2018-04-04T10:29:02.742Z,31.40
2018-04-04T10:31:32.522Z,31.40
2018-04-04T10:34:02.321Z,31.40
2018-04-04T10:36:33.508Z,31.30
2018-04-04T10:39:03.297Z,31.30
2018-04-04T10:41:33.201Z,31.30
2018-04-04T10:44:03.806Z,31.30
2018-04-04T10:46:33.571Z,31.20
2018-04-04T10:49:03.360Z,31.20
2018-04-04T10:51:33.198Z,31.20
2018-04-04T10:54:04.121Z,31.10
2018-04-04T10:56:33.929Z,31.10
2018-04-04T10:59:03.715Z,31.00
2018-04-04T11:01:33.937Z,31.00
2018-04-04T11:04:04.202Z,31.00
2018-04-04T11:06:35.071Z,30.90
2018-04-04T11:09:05.252Z,30.90
2018-04-04T11:11:34.990Z,30.90
2018-04-04T11:14:04.984Z,30.90
2018-04-04T11:16:36.032Z,30.90
2018-04-04T11:19:05.997Z,30.90
2018-04-04T11:21:36.644Z,30.90
2018-04-04T11:24:07.222Z,30.90
2018-04-04T11:26:37.485Z,30.80
2018-04-04T11:29:08.117Z,30.80
2018-04-04T11:31:38.680Z,30.80
2018-04-04T11:34:08.453Z,30.80
2018-04-04T11:36:39.711Z,30.90
2018-04-04T11:39:10.285Z,30.80
2018-04-04T11:41:40.069Z,30.80
2018-04-04T11:44:09.912Z,30.80
2018-04-04T11:46:39.793Z,30.80
2018-04-04T11:49:09.667Z,30.80
2018-04-04T11:51:39.462Z,30.80
2018-04-04T11:54:09.289Z,30.80
2018-04-04T11:56:39.220Z,30.70
2018-04-04T11:59:09.792Z,30.60
2018-04-04T12:01:39.667Z,30.60
2018-04-04T12:04:10.239Z,30.60
2018-04-04T12:06:40.041Z,30.60
2018-04-04T12:09:09.944Z,30.60
2018-04-04T12:11:39.713Z,30.50
2018-04-04T12:14:10.743Z,30.40
2018-04-04T12:16:40.541Z,30.40
2018-04-04T12:19:10.401Z,30.40
2018-04-04T12:21:40.494Z,30.30
2018-04-04T12:24:12.027Z,30.30
2018-04-04T12:26:41.817Z,30.30
2018-04-04T12:29:11.633Z,30.20
2018-04-04T12:31:42.308Z,30.20
2018-04-04T12:34:12.167Z,30.20
2018-04-04T12:36:42.010Z,30.20
2018-04-04T12:39:12.182Z,30.20
2018-04-04T12:41:42.290Z,30.20
2018-04-04T12:44:14.344Z,30.20
2018-04-04T12:46:45.053Z,30.10
2018-04-04T12:49:15.842Z,30.10
2018-04-04T12:51:45.750Z,30.10
2018-04-04T12:54:16.321Z,30.00
2018-04-04T12:56:46.119Z,30.00
2018-04-04T12:59:15.922Z,30.00
2018-04-04T13:01:45.733Z,30.00
2018-04-04T13:04:15.589Z,29.90
2018-04-04T13:06:45.460Z,29.90
2018-04-04T13:09:23.453Z,29.80
2018-04-04T13:11:53.294Z,29.80
2018-04-04T13:14:23.092Z,29.70
2018-04-04T13:16:52.885Z,29.70
2018-04-04T13:19:23.479Z,29.60
2018-04-04T13:21:53.333Z,29.60
2018-04-04T13:24:23.190Z,29.60
2018-04-04T13:26:52.994Z,29.50
2018-04-04T13:29:22.857Z,29.50
2018-04-04T13:31:54.627Z,29.40
2018-04-04T13:36:58.077Z,29.40
2018-04-04T13:39:27.945Z,29.40
2018-04-04T13:41:58.597Z,29.30
2018-04-04T13:44:29.349Z,29.30
2018-04-04T13:46:59.224Z,29.30
2018-04-04T13:49:29.827Z,29.20
2018-04-04T13:51:59.612Z,29.20
2018-04-04T13:54:29.408Z,29.10
2018-04-04T13:56:59.288Z,29.00
2018-04-04T13:59:30.224Z,29.00
2018-04-04T14:02:01.433Z,29.00
2018-04-04T14:04:31.259Z,29.00
2018-04-04T14:07:01.126Z,28.90
2018-04-04T14:09:31.000Z,28.90
2018-04-04T14:12:01.583Z,28.80
2018-04-04T14:14:31.416Z,28.80
2018-04-04T14:17:01.259Z,28.80
2018-04-04T14:19:31.908Z,28.80
2018-04-04T14:22:02.513Z,28.80
2018-04-04T14:24:33.138Z,28.70
2018-04-04T14:27:02.966Z,28.70
2018-04-04T14:29:34.602Z,28.70
2018-04-04T14:32:04.439Z,28.70
2018-04-04T14:34:35.107Z,28.70
2018-04-04T14:37:04.910Z,28.70
2018-04-04T14:39:34.752Z,28.70
2018-04-04T14:42:04.611Z,28.60
2018-04-04T14:44:35.296Z,28.60
2018-04-04T14:47:06.018Z,28.60
2018-04-04T14:49:35.853Z,28.60
2018-04-04T14:52:06.066Z,28.50
2018-04-04T14:54:36.208Z,28.50
2018-04-04T14:57:06.033Z,28.40
2018-04-04T14:59:36.596Z,28.40
2018-04-04T15:02:06.532Z,28.40
2018-04-04T15:04:36.453Z,28.50
2018-04-04T15:07:06.709Z,28.50
2018-04-04T15:09:36.536Z,28.50
2018-04-04T15:12:07.190Z,28.60
2018-04-04T15:14:37.037Z,28.60
2018-04-04T15:17:06.850Z,28.60
2018-04-04T15:19:36.736Z,28.60
2018-04-04T15:22:06.757Z,28.60
2018-04-04T15:24:36.963Z,28.60
2018-04-04T15:27:07.244Z,28.50
2018-04-04T15:29:38.142Z,28.50
2018-04-04T15:32:08.106Z,28.40
2018-04-04T15:34:37.960Z,28.40
2018-04-04T15:37:08.129Z,28.40
2018-04-04T15:39:39.319Z,28.30
2018-04-04T15:42:09.149Z,28.30
2018-04-04T15:44:39.862Z,28.30
2018-04-04T15:47:09.689Z,28.30
2018-04-04T15:49:39.470Z,28.20
2018-04-04T15:52:10.876Z,28.30
2018-04-04T15:54:40.724Z,28.20
2018-04-04T15:57:13.441Z,28.30
2018-04-04T15:59:43.656Z,28.30
2018-04-04T16:02:18.727Z,28.30
2018-04-04T16:04:51.627Z,28.40
2018-04-04T16:07:22.163Z,28.40
2018-04-04T16:09:53.088Z,28.30
2018-04-04T16:12:22.901Z,28.30
2018-04-04T16:14:52.676Z,28.30
2018-04-04T16:17:22.929Z,28.30
2018-04-04T16:19:53.211Z,28.30
2018-04-04T16:22:23.390Z,28.30
2018-04-04T16:24:53.553Z,28.30
2018-04-04T16:27:23.822Z,28.30
2018-04-04T16:29:54.081Z,28.30
2018-04-04T16:32:24.271Z,28.30
2018-04-04T16:34:55.367Z,28.10
2018-04-04T16:37:26.896Z,28.10
2018-04-04T16:39:57.449Z,28.10
2018-04-04T16:42:27.231Z,28.10
2018-04-04T16:44:56.993Z,28.10
2018-04-04T16:47:26.775Z,28.10
2018-04-04T16:49:56.588Z,28.10
2018-04-04T16:52:26.404Z,28.10
2018-04-04T16:54:56.380Z,28.10
2018-04-04T16:57:26.556Z,28.20
2018-04-04T16:59:56.687Z,28.10
2018-04-04T17:02:29.115Z,28.10
2018-04-04T17:04:58.953Z,28.10
2018-04-04T17:07:28.823Z,28.10
2018-04-04T17:10:00.188Z,28.10
2018-04-04T17:12:31.675Z,28.00
2018-04-04T17:15:01.503Z,28.00
2018-04-04T17:17:31.252Z,28.00
2018-04-04T17:20:01.968Z,28.00
2018-04-04T17:22:31.781Z,28.00
2018-04-04T17:25:01.536Z,28.00
2018-04-04T17:27:31.315Z,28.00
2018-04-04T17:30:01.840Z,28.00
2018-04-04T17:32:31.661Z,28.00
2018-04-04T17:35:02.516Z,27.90
2018-04-04T17:37:32.605Z,27.90
2018-04-04T17:40:02.341Z,27.90
2018-04-04T23:44:05.247Z,27.00
2018-04-04T23:46:35.129Z,27.10
2018-04-04T23:49:05.020Z,27.10
2018-04-04T23:51:35.278Z,27.20
2018-04-04T23:54:05.105Z,27.20
2018-04-04T23:56:35.027Z,27.20
2018-04-04T23:59:04.921Z,27.30
